createdAt,value
2023-03-22T00:00:28.035Z,17.70
2023-03-22T00:03:16.759Z,17.00
2023-03-22T00:05:44.953Z,19.10
2023-03-22T00:08:13.531Z,22.90
2023-03-22T00:10:42.090Z,22.60
2023-03-22T00:13:11.385Z,19.30
2023-03-22T00:15:39.536Z,16.30
2023-03-22T00:18:08.611Z,14.10
2023-03-22T00:20:39.394Z,14.90
2023-03-22T00:23:09.102Z,13.80
2023-03-22T00:25:37.197Z,13.50
2023-03-22T00:28:05.279Z,13.10
2023-03-22T00:30:33.440Z,12.30
2023-03-22T00:33:01.520Z,13.70
2023-03-22T00:35:29.521Z,14.20
2023-03-22T00:37:57.622Z,13.00
2023-03-22T00:40:26.084Z,13.60
2023-03-22T00:42:54.105Z,15.70
2023-03-22T00:45:22.302Z,14.90
2023-03-22T00:47:50.399Z,16.30
2023-03-22T00:50:19.246Z,17.60
2023-03-22T00:52:47.519Z,15.80
2023-03-22T00:55:15.999Z,14.90
2023-03-22T00:57:44.479Z,14.30
2023-03-22T01:00:13.935Z,14.60
2023-03-22T01:02:43.488Z,14.50
2023-03-22T01:05:15.997Z,14.90
2023-03-22T01:07:45.062Z,14.30
2023-03-22T01:10:13.325Z,14.70
2023-03-22T01:12:41.302Z,13.20
2023-03-22T01:15:09.984Z,12.80
2023-03-22T01:17:37.992Z,13.50
2023-03-22T01:20:07.352Z,14.00
2023-03-22T01:22:35.622Z,15.70
2023-03-22T01:25:04.236Z,15.20
2023-03-22T01:27:32.582Z,15.60
2023-03-22T01:30:00.772Z,14.80
2023-03-22T01:32:28.897Z,15.20
2023-03-22T01:34:57.335Z,14.60
2023-03-22T01:37:28.458Z,13.40
2023-03-22T01:39:57.546Z,13.30
2023-03-22T01:42:26.958Z,13.90
2023-03-22T01:45:39.057Z,14.80
2023-03-22T01:48:14.706Z,15.20
2023-03-22T01:50:47.871Z,15.60
2023-03-22T01:53:19.164Z,15.40
2023-03-22T01:55:49.872Z,15.80
2023-03-22T01:58:24.599Z,14.80
2023-03-22T02:00:58.488Z,13.50
2023-03-22T02:04:04.479Z,12.90
2023-03-22T02:06:38.312Z,13.40
2023-03-22T02:09:14.051Z,10.60
2023-03-22T02:11:46.543Z,10.60
2023-03-22T02:14:52.753Z,12.50
2023-03-22T02:18:06.404Z,12.80
2023-03-22T02:21:05.977Z,12.10
2023-03-22T02:23:56.097Z,12.10
2023-03-22T02:26:44.122Z,11.50
2023-03-22T02:29:35.135Z,11.00
2023-03-22T02:32:31.365Z,11.30
2023-03-22T02:35:08.349Z,11.40
2023-03-22T02:37:51.470Z,10.90
2023-03-22T02:40:25.703Z,9.20
2023-03-22T02:43:06.083Z,9.90
2023-03-22T02:45:50.815Z,10.70
2023-03-22T02:48:31.169Z,10.60
2023-03-22T02:51:29.759Z,11.50
2023-03-22T02:54:04.598Z,11.60
2023-03-22T02:57:08.291Z,11.40
2023-03-22T02:59:41.144Z,11.70
2023-03-22T03:02:13.546Z,10.70
2023-03-22T03:04:48.015Z,9.40
2023-03-22T03:07:22.386Z,10.40
2023-03-22T03:09:51.890Z,8.60
2023-03-22T03:12:26.204Z,7.00
2023-03-22T03:14:56.338Z,7.20
2023-03-22T03:17:49.686Z,6.50
2023-03-22T03:20:31.368Z,7.40
2023-03-22T03:23:13.826Z,7.70
2023-03-22T03:25:58.042Z,8.80
2023-03-22T03:28:39.741Z,7.40
2023-03-22T03:31:10.530Z,7.80
2023-03-22T03:33:51.838Z,8.50
2023-03-22T03:36:22.895Z,9.90
2023-03-22T03:38:54.770Z,10.80
2023-03-22T03:41:28.740Z,11.70
2023-03-22T03:43:58.999Z,11.30
2023-03-22T03:46:29.237Z,12.20
2023-03-22T03:48:58.886Z,11.90
2023-03-22T03:51:28.484Z,9.90
2023-03-22T03:53:56.571Z,10.40
2023-03-22T03:56:25.066Z,8.30
2023-03-22T03:58:53.436Z,10.10
2023-03-22T04:01:21.923Z,10.00
2023-03-22T04:03:56.385Z,10.20
2023-03-22T04:06:47.348Z,11.10
2023-03-22T04:09:18.788Z,11.60
2023-03-22T04:11:50.967Z,9.50
2023-03-22T04:14:20.871Z,8.30
2023-03-22T04:16:50.327Z,6.30
2023-03-22T04:19:21.320Z,6.40
2023-03-22T04:21:49.282Z,6.40
2023-03-22T04:24:17.350Z,5.10
2023-03-22T04:26:46.552Z,5.90
2023-03-22T04:29:24.971Z,5.40
2023-03-22T04:31:57.439Z,6.30
2023-03-22T04:34:31.556Z,8.50
2023-03-22T04:37:04.741Z,8.20
2023-03-22T04:39:34.868Z,7.50
2023-03-22T04:42:26.478Z,6.70
2023-03-22T04:45:05.478Z,6.10
2023-03-22T04:47:33.991Z,6.20
2023-03-22T04:50:02.473Z,6.90
2023-03-22T04:52:31.567Z,7.40
2023-03-22T04:54:59.844Z,8.30
2023-03-22T04:57:28.263Z,9.00
2023-03-22T04:59:57.524Z,8.40
2023-03-22T05:02:25.737Z,9.20
2023-03-22T05:04:53.822Z,9.70
2023-03-22T05:07:40.672Z,9.70
2023-03-22T05:10:10.884Z,9.30
2023-03-22T05:12:39.878Z,9.80
2023-03-22T05:15:37.059Z,9.00
2023-03-22T05:18:05.929Z,8.20
2023-03-22T05:20:33.981Z,8.40
2023-03-22T05:23:10.881Z,9.50
2023-03-22T05:25:39.560Z,10.00
2023-03-22T05:28:08.637Z,11.50
2023-03-22T05:30:45.536Z,10.40
2023-03-22T05:33:52.722Z,11.10
2023-03-22T05:36:25.816Z,12.50
2023-03-22T05:39:20.580Z,11.00
2023-03-22T05:41:48.888Z,11.70
2023-03-22T05:44:17.067Z,12.40
2023-03-22T05:46:59.197Z,11.50
2023-03-22T05:49:56.618Z,11.90
2023-03-22T05:52:25.712Z,11.60
2023-03-22T05:55:06.810Z,13.30
2023-03-22T05:57:35.783Z,15.70
2023-03-22T06:00:15.198Z,15.10
2023-03-22T06:02:56.856Z,15.40
2023-03-22T06:05:25.510Z,13.90
2023-03-22T06:07:53.773Z,15.10
2023-03-22T06:10:24.299Z,13.60
2023-03-22T06:12:53.748Z,15.40
2023-03-22T06:15:26.080Z,14.90
2023-03-22T06:17:57.220Z,14.60
2023-03-22T06:20:27.845Z,14.70
2023-03-22T06:23:01.750Z,14.30
2023-03-22T06:25:30.084Z,13.40
2023-03-22T06:27:58.506Z,12.80
2023-03-22T06:30:26.885Z,12.70
2023-03-22T06:33:21.263Z,11.40
2023-03-22T06:35:53.754Z,11.30
2023-03-22T06:38:29.997Z,11.40
2023-03-22T06:40:58.577Z,10.90
2023-03-22T06:43:27.259Z,10.30
2023-03-22T06:46:01.166Z,8.90
2023-03-22T06:48:33.543Z,8.80
2023-03-22T06:51:07.010Z,8.30
2023-03-22T06:53:36.657Z,10.70
2023-03-22T06:56:05.744Z,10.80
2023-03-22T06:58:42.104Z,10.40
2023-03-22T07:01:10.515Z,10.40
2023-03-22T07:03:39.097Z,11.10
2023-03-22T07:06:19.224Z,11.10
2023-03-22T07:08:51.573Z,10.70
2023-03-22T07:11:23.389Z,10.30
2023-03-22T07:13:58.390Z,10.50
2023-03-22T07:16:28.195Z,11.80
2023-03-22T07:19:01.687Z,12.60
2023-03-22T07:21:30.064Z,12.60
2023-03-22T07:24:01.421Z,13.00
2023-03-22T07:26:30.908Z,13.00
2023-03-22T07:29:00.060Z,13.30
2023-03-22T07:31:31.774Z,12.30
2023-03-22T07:34:12.776Z,11.70
2023-03-22T07:36:59.460Z,13.60
2023-03-22T07:39:29.073Z,12.30
2023-03-22T07:41:57.343Z,12.80
2023-03-22T07:44:26.034Z,13.60
2023-03-22T07:47:27.126Z,12.90
2023-03-22T07:50:20.653Z,13.80
2023-03-22T07:52:53.018Z,14.90
2023-03-22T07:55:21.200Z,12.80
2023-03-22T07:57:49.569Z,13.70
2023-03-22T08:00:18.864Z,13.20
2023-03-22T08:02:55.900Z,11.40
2023-03-22T08:05:42.523Z,10.30
2023-03-22T08:08:14.840Z,10.20
2023-03-22T08:10:43.299Z,11.10
2023-03-22T08:13:14.017Z,10.30
2023-03-22T08:15:43.343Z,9.80
2023-03-22T08:18:11.809Z,8.90
2023-03-22T08:20:41.352Z,9.10
2023-03-22T08:23:16.300Z,8.00
2023-03-22T08:25:47.592Z,8.20
2023-03-22T08:28:17.308Z,8.40
2023-03-22T08:30:47.867Z,7.90
2023-03-22T08:33:16.424Z,7.70
2023-03-22T08:35:45.399Z,6.80
2023-03-22T08:38:13.511Z,6.40
2023-03-22T08:40:48.120Z,7.20
2023-03-22T08:43:19.236Z,6.80
2023-03-22T08:45:48.341Z,6.80
2023-03-22T08:48:17.791Z,7.40
2023-03-22T08:53:36.713Z,7.20
2023-03-22T08:56:22.911Z,6.00
2023-03-22T08:59:04.088Z,5.30
2023-03-22T09:01:53.476Z,5.60
2023-03-22T09:04:21.667Z,5.60
2023-03-22T09:06:49.905Z,6.00
2023-03-22T09:09:18.299Z,5.20
2023-03-22T09:12:00.898Z,5.00
2023-03-22T09:14:29.160Z,4.00
2023-03-22T09:16:57.748Z,5.10
2023-03-22T09:19:26.738Z,5.10
2023-03-22T09:21:54.820Z,5.10
2023-03-22T09:24:32.283Z,5.30
2023-03-22T09:27:03.442Z,4.50
2023-03-22T09:29:32.033Z,4.50
2023-03-22T09:32:00.404Z,4.90
2023-03-22T09:34:32.255Z,4.80
2023-03-22T09:37:02.545Z,4.40
2023-03-22T09:39:38.655Z,4.30
2023-03-22T09:44:44.914Z,4.30
2023-03-22T09:47:21.911Z,3.80
2023-03-22T09:49:59.353Z,3.90
2023-03-22T09:52:27.482Z,3.30
2023-03-22T09:54:55.837Z,2.90
2023-03-22T09:57:36.603Z,3.00
2023-03-22T10:00:12.910Z,3.20
2023-03-22T10:02:52.558Z,3.60
2023-03-22T10:05:29.809Z,2.80
2023-03-22T10:08:01.564Z,3.00
2023-03-22T10:10:30.656Z,3.00
2023-03-22T10:13:20.336Z,3.30
2023-03-22T10:15:52.518Z,3.10
2023-03-22T10:18:26.119Z,3.00
2023-03-22T10:21:00.045Z,2.90
2023-03-22T10:23:41.801Z,3.00
2023-03-22T10:26:20.752Z,3.30
2023-03-22T10:29:04.147Z,3.40
2023-03-22T10:31:34.679Z,2.90
2023-03-22T10:34:07.121Z,3.30
2023-03-22T10:36:38.733Z,3.50
2023-03-22T10:39:40.076Z,3.20
2023-03-22T10:42:22.151Z,3.20
2023-03-22T10:45:03.030Z,3.40
2023-03-22T10:47:58.056Z,3.00
2023-03-22T10:50:39.347Z,3.00
2023-03-22T10:53:12.087Z,3.10
2023-03-22T10:55:42.357Z,2.50
2023-03-22T10:58:10.793Z,2.80
2023-03-22T11:00:49.277Z,3.30
2023-03-22T11:03:36.532Z,3.40
2023-03-22T11:06:37.172Z,3.00
2023-03-22T11:09:15.796Z,3.10
2023-03-22T11:11:53.671Z,3.40
2023-03-22T11:14:27.735Z,3.20
2023-03-22T11:16:58.317Z,3.40
2023-03-22T11:19:29.472Z,3.40
2023-03-22T11:21:59.374Z,2.90
2023-03-22T11:24:30.376Z,3.80
2023-03-22T11:27:23.096Z,3.60
2023-03-22T11:29:58.547Z,3.90
2023-03-22T11:32:29.140Z,3.70
2023-03-22T11:35:11.854Z,3.10
2023-03-22T11:37:51.872Z,3.80
2023-03-22T11:40:23.758Z,3.40
2023-03-22T11:42:58.897Z,3.60
2023-03-22T11:45:32.195Z,3.70
2023-03-22T11:48:13.607Z,3.50
2023-03-22T11:50:44.658Z,3.20
2023-03-22T11:53:17.298Z,3.70
2023-03-22T11:55:48.245Z,3.80
2023-03-22T11:58:38.989Z,4.00
2023-03-22T12:01:08.948Z,3.80
2023-03-22T12:03:42.352Z,3.80
2023-03-22T12:06:22.415Z,2.90
2023-03-22T12:09:03.774Z,3.70
2023-03-22T12:11:41.265Z,3.60
2023-03-22T12:14:12.302Z,3.60
2023-03-22T12:16:55.124Z,4.00
2023-03-22T12:19:42.243Z,3.30
2023-03-22T12:22:17.085Z,3.20
2023-03-22T12:24:46.269Z,3.40
2023-03-22T12:27:19.661Z,3.70
2023-03-22T12:29:57.898Z,3.00
2023-03-22T12:32:34.251Z,3.30
2023-03-22T12:35:16.460Z,3.40
2023-03-22T12:37:51.735Z,2.90
2023-03-22T12:40:23.130Z,3.50
2023-03-22T12:43:00.336Z,2.90
2023-03-22T12:45:35.032Z,3.30
2023-03-22T12:48:06.674Z,3.00
2023-03-22T12:53:12.673Z,3.00
2023-03-22T12:55:42.649Z,3.80
2023-03-22T12:58:15.628Z,3.30
2023-03-22T13:00:56.079Z,2.90
2023-03-22T13:03:33.053Z,3.10
2023-03-22T13:06:05.463Z,3.10
2023-03-22T13:09:17.014Z,3.70
2023-03-22T13:12:06.443Z,3.60
2023-03-22T13:14:52.777Z,3.70
2023-03-22T13:17:23.988Z,3.40
2023-03-22T13:20:20.218Z,3.30
2023-03-22T13:22:48.189Z,3.60
2023-03-22T13:25:23.941Z,3.30
2023-03-22T13:27:56.913Z,3.00
2023-03-22T13:30:27.649Z,3.40
2023-03-22T13:33:03.760Z,3.70
2023-03-22T13:35:45.652Z,3.30
2023-03-22T13:38:24.123Z,3.50
2023-03-22T13:41:08.283Z,3.10
2023-03-22T13:43:58.265Z,2.80
2023-03-22T13:46:45.215Z,3.60
2023-03-22T13:49:49.787Z,3.40
2023-03-22T13:52:40.355Z,3.60
2023-03-22T13:55:36.355Z,3.70
2023-03-22T13:58:08.891Z,3.00
2023-03-22T14:00:40.842Z,3.50
2023-03-22T14:05:47.541Z,2.90
2023-03-22T14:10:58.883Z,3.40
2023-03-22T14:13:42.978Z,3.40
2023-03-22T14:16:28.198Z,3.30
2023-03-22T14:18:57.357Z,3.90
2023-03-22T14:21:37.514Z,3.50
